Alexandria, MN

5:56 AM CST on December 07, 2016 (GMT -0600)
ASOS_HFM | | Change Station

Elev 1423 ft 45.87 °N, 95.40 °W | Updated 26 minutes ago

Light Snow
Light Snow Mist
10 °F
Feels Like -9 °F
N
21
Wind Variable Wind from West
Gusts 27.0 mph

Today
High -- | Low -- °F
--% Chance of Precip.
Yesterday
High -- | Low -- °F
Precip. -- in
Pressure 30.02 in
Visibility 1.8 miles
Clouds Mostly Cloudy 1200 ft
Overcast 2200 ft
Windchill -9 °F
Dew Point 7 °F
Humidity 85%
Rainfall in
Snow Depth Not available.
7:49 AM 4:36 PM
First Quarter, 51% visible
METAR KAXN 071153Z AUTO 29020G28KT 1 3/4SM -SN BR BKN012 OVC022 M12/M14 A2993 RMK AO2 PK WND 27030/1123 SLP165 P0000 60000 T11171139 11106 21117 51018
Pressure 30.02 in
Visibility 1.8 miles
Clouds Mostly Cloudy 1200 ft
Overcast 2200 ft
Windchill -9 °F
Dew Point 7 °F
Humidity 85%
Rainfall in
Snow Depth Not available.
7:49 AM 4:36 PM
First Quarter, 51% visible
METAR KAXN 071153Z AUTO 29020G28KT 1 3/4SM -SN BR BKN012 OVC022 M12/M14 A2993 RMK AO2 PK WND 27030/1123 SLP165 P0000 60000 T11171139 11106 21117 51018

10-Day Weather Forecast

Almanac

Astronomy

Dec. 07, 2016 Rise Set
Actual Time
Civil Twilight
Nautical Twilight
Astronomical Twilight
Moon
Length of Visible Light
Length of Day
Tomorrow will be .
, % of the Moon is Illuminated

Today's Extremes

State Highs State Lows

Community

WunderPhotos

Upload Photos

1,956,111 photos uploaded!

WunderBlog® & News

Nearby

Air Quality

  Air Quality AQ Index Pollutant
Not available.

Snow Depth

Station Depth Elevation

Earthquake Activity

City Distance Mag. Time & Date
Minimum magnitude displayed is 2.5.

Coastal Water Temperatures

Place Temperature

Stations

Nearby Weather Stations

Station Location Temp. Windchill Dew Point Humidity Wind Precip. Elev Updated Type
                   

Watches & Warnings

There are currently no watches in effect.